Time;durP1;ratioP1;P1;durP2;ratioP2;P2;SDS_P1;SDS_P2;PMS_P1;PMS_P2;Temp;Humidity;BMP_temperature;BMP_pressure;BME280_temperature;BME280_humidity;BME280_pressure;Samples;Min_cycle;Max_cycle;Signal;HPM_P1;HPM_P2
2023/06/05 00:02:15;;;;;;;3.10;2.10;;;;;;;23.50;35.54;101125.79;105499;1297;67830;-88
2023/06/05 00:04:50;;;;;;;4.90;2.30;;;;;;;23.50;35.62;101128.98;105390;1299;68042;-93
2023/06/05 00:07:16;;;;;;;2.50;2.00;;;;;;;23.50;35.48;101124.45;105396;1297;67845;-88
2023/06/05 00:09:41;;;;;;;3.20;2.20;;;;;;;23.50;35.67;101122.51;105513;1297;67994;-88
2023/06/05 00:12:07;;;;;;;4.50;2.00;;;;;;;23.50;35.57;101120.34;105471;1297;68546;-88
2023/06/05 00:14:33;;;;;;;5.70;1.90;;;;;;;23.49;35.70;101114.55;105407;1297;67183;-88
2023/06/05 00:16:58;;;;;;;2.70;2.00;;;;;;;23.50;35.56;101118.23;105321;1297;68495;-88
2023/06/05 00:19:24;;;;;;;2.90;2.10;;;;;;;23.50;35.71;101114.70;105426;1297;67609;-88
2023/06/05 00:21:51;;;;;;;2.40;1.90;;;;;;;23.50;35.57;101121.32;105486;1297;67631;-88
2023/06/05 00:24:16;;;;;;;4.80;2.20;;;;;;;23.49;35.68;101119.57;105483;1298;67832;-88
2023/06/05 00:26:42;;;;;;;4.90;2.10;;;;;;;23.49;35.78;101117.88;105607;1297;67710;-88
2023/06/05 00:29:07;;;;;;;4.40;2.20;;;;;;;23.49;35.77;101119.98;105486;1297;68516;-88
2023/06/05 00:31:43;;;;;;;2.80;1.90;;;;;;;23.49;35.87;101120.30;105523;1297;68529;-93
2023/06/05 00:34:09;;;;;;;4.70;2.10;;;;;;;23.48;35.81;101111.72;105816;1297;66994;-88
2023/06/05 00:36:36;;;;;;;2.70;1.90;;;;;;;23.49;35.89;101108.94;105698;1297;67221;-88
2023/06/05 00:39:02;;;;;;;3.70;2.30;;;;;;;23.48;35.85;101107.15;105672;1297;68003;-88
2023/06/05 00:41:28;;;;;;;3.60;2.00;;;;;;;23.48;35.91;101107.77;105648;1298;67870;-88
2023/06/05 00:43:53;;;;;;;3.00;2.10;;;;;;;23.48;35.81;101105.51;105569;1297;67819;-88
2023/06/05 00:46:19;;;;;;;3.20;1.90;;;;;;;23.48;35.82;101104.39;105769;1297;67311;-87
2023/06/05 00:48:46;;;;;;;3.50;2.10;;;;;;;23.48;35.83;101101.24;105756;1299;67164;-87
2023/06/05 00:51:15;;;;;;;4.10;2.30;;;;;;;23.48;35.94;101104.63;105492;1297;67806;-87
2023/06/05 00:53:41;;;;;;;2.40;1.90;;;;;;;23.48;35.91;101112.19;105556;1297;68337;-87
2023/06/05 00:56:06;;;;;;;7.10;2.20;;;;;;;23.47;35.94;101108.91;105499;1297;67862;-87
2023/06/05 00:58:41;;;;;;;3.30;1.80;;;;;;;23.47;35.95;101106.95;105521;1297;68010;-92
2023/06/05 01:01:06;;;;;;;3.00;2.10;;;;;;;23.47;35.89;101106.95;105441;1297;67953;-87
2023/06/05 01:03:35;;;;;;;3.50;2.00;;;;;;;23.47;35.81;101108.29;105437;1297;68141;-87
2023/06/05 01:06:04;;;;;;;2.90;1.70;;;;;;;23.47;35.85;101105.16;105392;1297;67830;-87
2023/06/05 01:08:39;;;;;;;3.30;2.10;;;;;;;23.46;35.93;101105.25;105523;1297;67758;-87
2023/06/05 01:11:27;;;;;;;4.50;1.90;;;;;;;23.47;35.87;101103.15;105373;1297;83032;-87
2023/06/05 01:14:12;;;;;;;2.40;1.90;;;;;;;23.45;35.79;101103.71;105299;1297;67826;-88
2023/06/05 01:16:38;;;;;;;2.80;2.00;;;;;;;23.45;35.89;101101.45;105371;1299;68349;-87
2023/06/05 01:19:03;;;;;;;4.00;2.10;;;;;;;23.45;35.91;101099.15;105530;1297;67099;-87
2023/06/05 01:21:30;;;;;;;3.30;1.90;;;;;;;23.45;35.97;101096.02;105495;1297;67459;-87
2023/06/05 01:23:57;;;;;;;2.30;1.60;;;;;;;23.45;35.95;101095.05;105570;1297;67717;-87
2023/06/05 01:26:26;;;;;;;3.40;1.70;;;;;;;23.45;35.89;101093.08;105417;1297;68213;-87
2023/06/05 01:28:51;;;;;;;3.40;1.80;;;;;;;23.45;35.84;101092.05;105434;1301;67088;-87
2023/06/05 01:34:05;;;;;;;4.20;1.90;;;;;;;23.44;35.93;101094.48;105573;1297;67745;-87
2023/06/05 01:36:31;;;;;;;4.40;1.80;;;;;;;23.44;35.92;101097.71;105355;1297;75527;-86
2023/06/05 01:38:57;;;;;;;2.90;1.80;;;;;;;23.44;35.84;101101.71;105419;1297;68105;-87
2023/06/05 01:41:23;;;;;;;3.40;1.40;;;;;;;23.44;35.86;101097.76;105506;1297;67399;-87
2023/06/05 01:43:48;;;;;;;3.50;1.80;;;;;;;23.44;35.78;101098.58;105521;1297;67200;-87
2023/06/05 01:48:54;;;;;;;2.30;1.60;;;;;;;23.43;35.82;101105.92;105562;1298;74657;-87
2023/06/05 01:51:20;;;;;;;2.90;1.80;;;;;;;23.42;35.75;101107.88;105398;1297;67915;-87
2023/06/05 01:53:48;;;;;;;3.30;1.90;;;;;;;23.43;35.77;101108.17;105446;1297;67744;-86
2023/06/05 01:56:19;;;;;;;3.90;1.80;;;;;;;23.42;35.80;101110.23;105473;1297;68076;-87
2023/06/05 01:58:47;;;;;;;3.20;1.90;;;;;;;23.42;35.69;101111.36;105468;1297;67738;-88
2023/06/05 02:03:53;;;;;;;4.90;1.60;;;;;;;23.42;35.67;101118.40;105605;1296;72639;-87
2023/06/05 02:06:18;;;;;;;2.00;1.60;;;;;;;23.42;35.78;101122.77;105524;1297;67835;-87
2023/06/05 02:08:44;;;;;;;4.40;1.70;;;;;;;23.41;35.71;101123.59;105477;1297;67811;-87
2023/06/05 02:11:10;;;;;;;2.00;1.70;;;;;;;23.41;35.74;101123.43;105346;1298;67091;-87
2023/06/05 02:13:39;;;;;;;2.00;1.60;;;;;;;23.41;35.65;101124.81;105428;1298;67912;-88
2023/06/05 02:18:39;;;;;;;3.80;1.70;;;;;;;23.40;35.69;101125.52;105580;1293;67784;-88
2023/06/05 02:21:05;;;;;;;3.60;1.90;;;;;;;23.41;35.73;101125.73;105437;1297;67775;-87
2023/06/05 02:23:31;;;;;;;2.90;1.60;;;;;;;23.41;35.76;101127.50;105487;1296;67814;-87
2023/06/05 02:25:57;;;;;;;3.50;1.70;;;;;;;23.41;35.77;101131.55;105411;1296;67699;-88
2023/06/05 02:28:23;;;;;;;2.60;1.70;;;;;;;23.41;35.82;101133.14;105437;1297;68176;-87
2023/06/05 02:30:48;;;;;;;2.10;1.40;;;;;;;23.41;35.82;101135.35;105489;1297;67143;-88
2023/06/05 02:33:14;;;;;;;2.50;1.70;;;;;;;23.41;35.87;101139.86;105491;1297;75416;-87
2023/06/05 02:35:40;;;;;;;4.10;1.70;;;;;;;23.40;35.92;101137.40;105509;1296;68214;-87
2023/06/05 02:38:08;;;;;;;3.20;1.60;;;;;;;23.40;35.93;101129.85;105483;1297;67229;-87
2023/06/05 02:40:33;;;;;;;3.30;1.70;;;;;;;23.40;35.97;101135.54;105604;1297;67684;-88
2023/06/05 02:43:00;;;;;;;2.80;1.80;;;;;;;23.40;35.92;101132.46;105473;1296;68004;-87
2023/06/05 02:45:34;;;;;;;4.00;1.80;;;;;;;23.39;36.02;101131.34;105534;1296;67904;-88
2023/06/05 02:48:00;;;;;;;3.00;1.80;;;;;;;23.39;36.05;101136.59;105648;1297;67754;-87
2023/06/05 02:50:25;;;;;;;4.50;1.60;;;;;;;23.40;36.04;101139.14;105515;1296;67957;-88
2023/06/05 02:52:51;;;;;;;4.00;1.80;;;;;;;23.39;36.04;101140.84;105586;1297;67911;-88
2023/06/05 02:55:17;;;;;;;6.20;2.20;;;;;;;23.39;36.14;101143.20;105613;1295;67056;-88
2023/06/05 02:57:42;;;;;;;2.90;1.70;;;;;;;23.39;36.06;101141.73;105619;1297;68028;-87
2023/06/05 03:00:14;;;;;;;3.00;1.90;;;;;;;23.39;36.14;101139.71;105557;1302;68161;-88
2023/06/05 03:02:40;;;;;;;4.60;1.80;;;;;;;23.40;36.20;101136.94;105606;1295;67834;-88
2023/06/05 03:05:07;;;;;;;2.90;1.90;;;;;;;23.40;36.15;101137.19;105633;1296;67612;-88
2023/06/05 03:07:33;;;;;;;3.00;1.90;;;;;;;23.39;36.22;101139.71;105606;1297;67835;-88
2023/06/05 03:12:33;;;;;;;3.50;1.70;;;;;;;23.39;36.24;101142.38;105636;1296;67662;-87
2023/06/05 03:14:58;;;;;;;4.30;1.90;;;;;;;23.39;36.39;101139.55;105490;1296;67685;-87
2023/06/05 03:17:24;;;;;;;3.60;2.10;;;;;;;23.39;36.37;101139.96;105622;1297;68479;-87
2023/06/05 03:19:50;;;;;;;3.70;1.90;;;;;;;23.39;36.48;101147.21;105516;1297;67881;-87
2023/06/05 03:22:17;;;;;;;4.20;2.10;;;;;;;23.39;36.47;101149.88;105446;1296;67939;-87
2023/06/05 03:24:45;;;;;;;3.20;2.10;;;;;;;23.40;36.42;101148.80;105450;1296;67867;-87
2023/06/05 03:27:11;;;;;;;2.50;1.80;;;;;;;23.39;36.53;101148.02;105509;1296;67953;-87
2023/06/05 03:29:36;;;;;;;2.50;1.80;;;;;;;23.40;36.58;101150.49;105516;1297;68371;-87
2023/06/05 03:32:02;;;;;;;3.90;2.20;;;;;;;23.40;36.70;101153.83;105700;1297;67797;-87
2023/06/05 03:34:29;;;;;;;4.10;2.00;;;;;;;23.39;36.74;101153.98;105719;1296;67906;-87
2023/06/05 03:37:04;;;;;;;3.50;2.30;;;;;;;23.39;36.68;101150.45;105544;1296;67811;-92
2023/06/05 03:39:29;;;;;;;2.60;1.80;;;;;;;23.39;36.76;101151.92;105519;1296;67945;-87
2023/06/05 03:41:55;;;;;;;4.90;2.10;;;;;;;23.39;36.83;101153.67;105515;1296;68346;-87
2023/06/05 03:44:22;;;;;;;2.60;1.90;;;;;;;23.39;36.92;101156.19;105483;1296;67823;-87
2023/06/05 03:46:48;;;;;;;2.60;2.00;;;;;;;23.39;36.97;101156.19;105480;1296;67835;-87
2023/06/05 03:49:14;;;;;;;3.70;2.00;;;;;;;23.39;36.96;101156.19;105590;1296;67907;-87
2023/06/05 03:51:41;;;;;;;3.50;1.80;;;;;;;23.39;36.99;101160.15;105482;1299;67785;-87
2023/06/05 03:54:08;;;;;;;2.90;2.10;;;;;;;23.40;36.97;101163.08;105556;1297;68138;-87
2023/06/05 03:56:34;;;;;;;4.30;1.90;;;;;;;23.39;37.13;101162.98;105604;1296;67840;-87
2023/06/05 03:59:18;;;;;;;5.90;2.10;;;;;;;23.40;37.08;101162.86;105465;1296;67863;-86
2023/06/05 04:01:44;;;;;;;3.90;2.10;;;;;;;23.38;37.24;101158.30;105422;1297;67818;-87
2023/06/05 04:04:10;;;;;;;3.30;2.20;;;;;;;23.39;37.25;101160.09;105578;1296;67237;-87
2023/06/05 04:06:36;;;;;;;4.20;2.10;;;;;;;23.39;37.24;101158.29;105549;1297;67547;-87
2023/06/05 04:09:10;;;;;;;2.80;2.00;;;;;;;23.39;37.19;101159.84;105605;1296;69088;-87
2023/06/05 04:11:35;;;;;;;4.10;2.10;;;;;;;23.39;37.39;101161.69;105522;1296;67112;-87
2023/06/05 04:14:01;;;;;;;3.00;1.90;;;;;;;23.39;37.28;101161.38;105527;1296;67226;-87
2023/06/05 04:16:28;;;;;;;4.40;1.90;;;;;;;23.39;37.37;101159.73;105456;1296;67945;-87
2023/06/05 04:18:54;;;;;;;4.80;2.20;;;;;;;23.39;37.51;101157.58;105513;1296;67072;-87
2023/06/05 04:21:20;;;;;;;3.80;2.40;;;;;;;23.40;37.64;101153.88;105464;1296;67726;-86
2023/06/05 04:23:45;;;;;;;4.60;2.20;;;;;;;23.40;37.55;101155.11;105529;1296;67172;-86
2023/06/05 04:26:11;;;;;;;3.30;2.10;;;;;;;23.40;37.65;101155.84;105540;1297;67792;-87
2023/06/05 04:28:37;;;;;;;3.90;2.20;;;;;;;23.40;37.62;101155.89;105463;1296;74350;-87
2023/06/05 04:31:02;;;;;;;6.50;2.60;;;;;;;23.40;37.58;101153.58;105451;1296;67173;-87
2023/06/05 04:33:28;;;;;;;3.60;2.20;;;;;;;23.39;37.61;101159.08;105442;1295;67835;-86
2023/06/05 04:35:54;;;;;;;4.00;2.30;;;;;;;23.40;37.68;101157.48;105455;1296;67872;-87
2023/06/05 04:38:21;;;;;;;6.30;2.60;;;;;;;23.40;37.77;101159.02;105593;1296;67071;-87
2023/06/05 04:40:50;;;;;;;3.20;2.20;;;;;;;23.40;37.73;101156.97;105489;1297;67834;-86
2023/06/05 04:43:16;;;;;;;4.40;2.20;;;;;;;23.40;37.73;101156.14;105569;1297;69131;-87
2023/06/05 04:45:50;;;;;;;4.80;2.40;;;;;;;23.41;37.82;101157.21;105427;1296;67019;-92
2023/06/05 04:48:16;;;;;;;4.90;2.30;;;;;;;23.40;37.85;101162.71;105412;1296;67742;-87
2023/06/05 04:50:42;;;;;;;4.90;2.50;;;;;;;23.40;37.91;101159.89;105513;1296;67845;-87
2023/06/05 04:53:07;;;;;;;4.30;2.60;;;;;;;23.40;37.87;101160.30;105509;1296;67084;-86
2023/06/05 04:55:33;;;;;;;4.90;2.80;;;;;;;23.41;37.95;101162.61;105518;1295;67865;-87
2023/06/05 04:58:00;;;;;;;4.40;2.20;;;;;;;23.40;37.89;101165.13;105551;1296;67836;-87
2023/06/05 05:00:29;;;;;;;3.60;2.40;;;;;;;23.40;37.86;101166.52;105520;1296;67665;-86
2023/06/05 05:02:55;;;;;;;5.00;2.20;;;;;;;23.41;37.91;101170.63;105577;1297;68464;-87
2023/06/05 05:05:20;;;;;;;4.80;2.80;;;;;;;23.41;38.07;101169.09;105575;1296;68465;-86
2023/06/05 05:07:46;;;;;;;3.00;2.40;;;;;;;23.41;38.03;101164.61;105575;1297;69041;-86
2023/06/05 05:10:11;;;;;;;3.80;2.30;;;;;;;23.41;38.09;101164.31;105562;1296;68520;-87
2023/06/05 05:12:45;;;;;;;4.40;2.40;;;;;;;23.41;38.04;101165.50;105579;1296;67960;-92
2023/06/05 05:15:11;;;;;;;6.60;2.70;;;;;;;23.41;38.12;101168.27;105667;1296;74530;-86
2023/06/05 05:17:37;;;;;;;6.10;2.40;;;;;;;23.41;38.19;101169.03;105450;1299;67948;-87
2023/06/05 05:20:06;;;;;;;4.40;2.50;;;;;;;23.42;38.15;101168.36;105427;1296;67913;-86
2023/06/05 05:22:32;;;;;;;4.10;2.50;;;;;;;23.42;38.30;101170.21;105525;1297;67984;-87
2023/06/05 05:24:57;;;;;;;3.50;2.60;;;;;;;23.42;38.34;101167.14;105553;1296;67954;-87
2023/06/05 05:27:24;;;;;;;5.50;2.40;;;;;;;23.42;38.39;101170.48;105549;1296;67973;-86
2023/06/05 05:29:58;;;;;;;4.20;2.30;;;;;;;23.41;38.35;101172.02;105485;1297;67779;-87
2023/06/05 05:32:24;;;;;;;6.10;3.00;;;;;;;23.42;38.28;101174.38;105527;1296;67891;-87
2023/06/05 05:34:50;;;;;;;5.00;2.50;;;;;;;23.42;38.39;101171.35;105690;1296;68248;-86
2023/06/05 05:37:16;;;;;;;4.80;2.60;;;;;;;23.42;38.37;101170.02;105605;1296;67768;-87
2023/06/05 05:39:41;;;;;;;3.50;2.50;;;;;;;23.42;38.27;101167.60;105610;1296;67936;-87
2023/06/05 05:42:07;;;;;;;3.90;2.30;;;;;;;23.43;38.42;101172.42;105622;1296;69050;-87
2023/06/05 05:44:33;;;;;;;4.20;2.50;;;;;;;23.43;38.42;101173.20;105527;1295;67780;-87
2023/06/05 05:46:58;;;;;;;4.40;2.70;;;;;;;23.43;38.43;101170.83;105595;1296;68449;-87
2023/06/05 05:49:24;;;;;;;5.10;2.60;;;;;;;23.44;38.53;101173.40;105621;1299;68421;-87
2023/06/05 05:51:50;;;;;;;4.90;2.70;;;;;;;23.43;38.52;101170.21;105610;1296;68490;-87
2023/06/05 05:54:16;;;;;;;3.40;2.30;;;;;;;23.44;38.56;101174.33;105451;1295;69284;-86
2023/06/05 05:56:42;;;;;;;4.00;2.70;;;;;;;23.44;38.56;101177.47;105741;1296;67757;-86
2023/06/05 05:59:07;;;;;;;4.10;2.40;;;;;;;23.45;38.60;101176.49;105912;1296;67129;-87
2023/06/05 06:01:33;;;;;;;3.50;2.30;;;;;;;23.45;38.57;101176.44;105950;1297;67127;-87
2023/06/05 06:03:59;;;;;;;3.80;2.40;;;;;;;23.46;38.61;101176.48;105977;1297;68088;-87
2023/06/05 06:06:34;;;;;;;4.90;2.70;;;;;;;23.46;38.55;101179.52;105883;1296;67119;-92
2023/06/05 06:09:01;;;;;;;7.20;2.80;;;;;;;23.46;38.54;101181.36;106122;1296;67008;-87
2023/06/05 06:11:27;;;;;;;4.90;2.60;;;;;;;23.46;38.48;101177.81;105849;1295;74315;-87
2023/06/05 06:13:53;;;;;;;6.50;2.80;;;;;;;23.47;38.48;101180.08;105623;1295;68201;-87
2023/06/05 06:16:18;;;;;;;4.20;2.80;;;;;;;23.47;38.52;101183.89;105518;1296;67949;-87
2023/06/05 06:18:44;;;;;;;4.30;2.60;;;;;;;23.48;38.48;101188.82;105531;1297;67886;-87
2023/06/05 06:21:10;;;;;;;4.90;2.70;;;;;;;23.48;38.46;101189.23;105504;1297;69048;-87
2023/06/05 06:23:36;;;;;;;3.30;2.70;;;;;;;23.49;38.36;101192.16;105492;1295;67874;-87
2023/06/05 06:26:01;;;;;;;3.50;2.60;;;;;;;23.49;38.40;101194.52;105493;1297;67944;-87
2023/06/05 06:28:27;;;;;;;3.80;2.50;;;;;;;23.49;38.45;101194.41;105653;1296;67912;-86
2023/06/05 06:30:52;;;;;;;4.40;2.50;;;;;;;23.50;38.38;101198.31;105582;1295;68233;-87
2023/06/05 06:33:29;;;;;;;5.30;2.50;;;;;;;23.50;38.51;101198.16;105488;1297;67816;-92
2023/06/05 06:35:58;;;;;;;4.10;2.70;;;;;;;23.50;38.49;101198.41;105542;1296;68044;-86
2023/06/05 06:38:29;;;;;;;4.20;2.70;;;;;;;23.50;38.40;101199.96;105617;1296;69131;-86
2023/06/05 06:40:57;;;;;;;4.80;2.50;;;;;;;23.50;38.34;101198.38;105445;1296;67920;-87
2023/06/05 06:43:22;;;;;;;3.70;2.60;;;;;;;23.50;38.29;101197.30;105530;1296;67724;-87
2023/06/05 06:45:49;;;;;;;3.70;2.50;;;;;;;23.51;38.36;101198.48;105442;1295;67913;-87
2023/06/05 06:48:24;;;;;;;4.20;2.60;;;;;;;23.51;38.29;101194.67;105473;1295;67896;-92
2023/06/05 06:50:50;;;;;;;3.80;2.50;;;;;;;23.52;38.26;101197.04;105677;1296;68723;-87
2023/06/05 06:53:15;;;;;;;7.10;2.60;;;;;;;23.52;38.09;101194.01;105592;1298;67749;-87
2023/06/05 06:55:41;;;;;;;4.50;2.60;;;;;;;23.52;38.08;101194.88;105551;1296;68385;-86
2023/06/05 06:58:07;;;;;;;3.40;2.50;;;;;;;23.53;38.14;101195.91;105668;1296;67889;-87
2023/06/05 07:00:33;;;;;;;4.60;2.50;;;;;;;23.53;38.07;101194.42;105600;1295;67221;-87
2023/06/05 07:02:59;;;;;;;6.40;2.30;;;;;;;23.53;38.04;101193.13;105541;1296;67586;-86
2023/06/05 07:05:25;;;;;;;4.30;2.50;;;;;;;23.54;37.99;101197.45;105509;1296;68547;-87
2023/06/05 07:07:51;;;;;;;3.90;2.60;;;;;;;23.55;37.95;101195.92;105488;1296;67894;-87
2023/06/05 07:10:16;;;;;;;4.40;2.50;;;;;;;23.56;37.78;101195.14;105194;1296;335413;-86
2023/06/05 07:12:42;;;;;;;3.70;2.40;;;;;;;23.56;37.79;101196.84;105521;1296;69025;-87
2023/06/05 07:15:17;;;;;;;4.00;2.50;;;;;;;23.57;37.78;101200.19;105531;1295;67861;-91
2023/06/05 07:17:42;;;;;;;3.40;2.10;;;;;;;23.56;37.71;101197.20;105638;1295;75174;-87
2023/06/05 07:20:09;;;;;;;4.40;2.60;;;;;;;23.57;37.57;101198.42;105562;1296;67149;-87
2023/06/05 07:22:34;;;;;;;3.40;2.40;;;;;;;23.58;37.49;101199.80;105769;1299;67824;-87
2023/06/05 07:25:00;;;;;;;3.40;2.30;;;;;;;23.59;37.60;101197.20;105764;1296;68283;-87
2023/06/05 07:27:28;;;;;;;3.70;2.30;;;;;;;23.59;37.37;101201.05;105861;1296;68056;-88
2023/06/05 07:29:54;;;;;;;2.80;2.20;;;;;;;23.60;37.32;101204.91;105742;1295;68011;-86
2023/06/05 07:32:20;;;;;;;3.10;2.60;;;;;;;23.60;37.28;101208.19;105550;1296;67967;-87
2023/06/05 07:34:46;;;;;;;3.80;2.10;;;;;;;23.60;37.26;101209.05;105582;1299;67748;-88
2023/06/05 07:37:12;;;;;;;4.50;2.50;;;;;;;23.61;37.11;101210.39;105611;1296;67021;-87
2023/06/05 07:39:37;;;;;;;3.40;2.20;;;;;;;23.61;37.13;101213.33;105598;1295;68086;-87
2023/06/05 07:42:03;;;;;;;3.50;2.40;;;;;;;23.61;37.06;101215.17;105536;1299;67758;-87
2023/06/05 07:44:29;;;;;;;5.20;2.30;;;;;;;23.63;36.88;101214.29;105564;1296;67178;-87
2023/06/05 07:46:55;;;;;;;4.40;2.50;;;;;;;23.62;36.97;101214.55;105753;1295;68305;-87
2023/06/05 07:49:23;;;;;;;3.00;2.20;;;;;;;23.63;36.93;101213.36;105861;1296;67808;-86
2023/06/05 07:51:50;;;;;;;5.60;2.50;;;;;;;23.63;36.90;101209.67;105773;1295;67557;-87
2023/06/05 07:54:16;;;;;;;4.10;2.20;;;;;;;23.63;36.80;101210.60;105599;1295;67806;-87
2023/06/05 07:56:41;;;;;;;5.80;2.10;;;;;;;23.64;36.73;101207.27;105579;1295;67755;-87
2023/06/05 07:59:07;;;;;;;3.40;2.20;;;;;;;23.64;36.70;101206.85;105669;1296;68183;-87
2023/06/05 08:01:36;;;;;;;2.90;1.90;;;;;;;23.64;36.69;101203.86;105652;1295;67832;-87
2023/06/05 08:04:06;;;;;;;3.60;1.80;;;;;;;23.65;36.70;101206.04;105663;1296;67860;-87
2023/06/05 08:06:32;;;;;;;3.20;2.10;;;;;;;23.66;36.63;101206.55;105835;1302;67175;-87
2023/06/05 08:09:01;;;;;;;3.10;1.90;;;;;;;23.66;36.65;101208.60;105889;1296;68340;-91
2023/06/05 08:11:28;;;;;;;3.00;1.90;;;;;;;23.67;36.48;101211.58;105546;1296;67645;-87
2023/06/05 08:13:54;;;;;;;3.40;2.30;;;;;;;23.67;36.51;101216.77;105529;1296;67730;-87
2023/06/05 08:16:20;;;;;;;4.70;2.20;;;;;;;23.67;36.45;101214.67;105624;1297;67140;-87
2023/06/05 08:18:46;;;;;;;4.80;2.20;;;;;;;23.68;36.37;101212.82;105896;1296;67082;-87
2023/06/05 08:21:12;;;;;;;3.90;2.40;;;;;;;23.68;36.34;101215.66;105894;1297;67185;-87
2023/06/05 08:23:38;;;;;;;3.40;2.20;;;;;;;23.68;36.29;101215.80;106023;1295;67091;-87
2023/06/05 08:26:10;;;;;;;3.00;2.00;;;;;;;23.69;36.26;101209.38;105995;1296;67088;-87
2023/06/05 08:28:40;;;;;;;6.10;2.20;;;;;;;23.69;36.18;101204.43;105621;1297;74411;-87
2023/06/05 08:31:09;;;;;;;4.90;2.40;;;;;;;23.70;36.13;101200.44;105465;1301;68008;-87
2023/06/05 08:33:35;;;;;;;4.40;2.30;;;;;;;23.70;36.08;101195.80;105702;1295;67711;-86
2023/06/05 08:36:01;;;;;;;3.10;2.20;;;;;;;23.70;36.03;101187.48;105899;1295;67135;-87
2023/06/05 08:38:27;;;;;;;3.60;2.00;;;;;;;23.70;36.13;101186.94;105697;1296;67394;-87
2023/06/05 08:41:00;;;;;;;2.50;2.10;;;;;;;23.71;36.05;101187.39;105484;1297;68477;-87
2023/06/05 08:43:26;;;;;;;2.80;2.20;;;;;;;23.71;36.07;101185.27;105506;1296;67969;-87
2023/06/05 08:45:52;;;;;;;5.40;2.30;;;;;;;23.71;35.97;101179.52;105508;1296;67876;-87
2023/06/05 08:48:17;;;;;;;5.10;2.10;;;;;;;23.72;35.95;101184.97;105733;1295;67943;-87
2023/06/05 08:53:23;;;;;;;4.70;2.10;;;;;;;23.72;35.81;101177.21;105584;1297;75377;-87
2023/06/05 08:55:55;;;;;;;5.20;2.30;;;;;;;23.72;35.73;101177.83;105413;1297;67897;-87
2023/06/05 08:58:21;;;;;;;2.60;2.10;;;;;;;23.72;35.80;101178.70;105411;1297;67805;-87
2023/06/05 09:00:48;;;;;;;3.80;2.30;;;;;;;23.73;35.67;101176.48;105451;1297;68450;-88
2023/06/05 09:03:19;;;;;;;4.10;2.10;;;;;;;23.73;35.75;101174.95;105444;1297;68324;-88
2023/06/05 09:06:10;;;;;;;2.80;2.10;;;;;;;23.74;35.79;101184.20;105523;1297;74474;-92
2023/06/05 09:08:36;;;;;;;3.60;2.10;;;;;;;23.73;35.81;101186.30;105428;1297;67913;-87
2023/06/05 09:11:28;;;;;;;4.00;2.30;;;;;;;23.74;35.68;101190.16;105489;1297;67917;-87
2023/06/05 09:13:55;;;;;;;2.30;2.00;;;;;;;23.74;35.58;101189.48;105630;1297;68607;-88
2023/06/05 09:16:22;;;;;;;4.90;2.30;;;;;;;23.74;35.71;101188.36;105560;1297;67104;-87
2023/06/05 09:18:53;;;;;;;3.40;2.20;;;;;;;23.75;35.55;101186.30;105585;1297;74418;-87
2023/06/05 09:21:18;;;;;;;5.60;1.90;;;;;;;23.74;35.43;101191.65;105497;1297;67985;-87
2023/06/05 09:23:47;;;;;;;5.50;2.20;;;;;;;23.75;35.51;101190.57;105448;1299;67842;-93
2023/06/05 09:26:15;;;;;;;2.80;2.10;;;;;;;23.75;35.47;101191.91;105418;1297;67757;-87
2023/06/05 09:28:54;;;;;;;3.40;2.20;;;;;;;23.76;35.34;101195.77;105420;1297;67380;-87
2023/06/05 09:31:21;;;;;;;5.00;2.30;;;;;;;23.76;35.28;101194.48;105601;1298;74161;-88
2023/06/05 09:33:55;;;;;;;2.60;1.90;;;;;;;23.76;35.36;101186.71;105484;1297;67073;-87
2023/06/05 09:36:21;;;;;;;4.30;2.10;;;;;;;23.77;35.41;101191.34;105479;1297;68055;-87
2023/06/05 09:38:47;;;;;;;3.50;2.00;;;;;;;23.77;35.43;101190.36;105596;1297;67866;-89
2023/06/05 09:41:18;;;;;;;3.60;2.20;;;;;;;23.77;35.24;101187.70;105577;1297;67875;-87
2023/06/05 09:43:45;;;;;;;3.30;2.10;;;;;;;23.77;35.27;101188.77;105467;1297;74367;-88
2023/06/05 09:46:14;;;;;;;3.20;2.00;;;;;;;23.77;35.16;101190.63;105490;1298;67009;-87
2023/06/05 09:48:40;;;;;;;5.40;2.00;;;;;;;23.78;35.12;101183.17;105552;1299;67814;-88
2023/06/05 09:51:11;;;;;;;4.40;2.10;;;;;;;23.78;35.09;101182.45;105467;1297;67865;-87
2023/06/05 09:53:45;;;;;;;4.20;2.30;;;;;;;23.78;34.98;101182.52;105610;1301;67415;-92
2023/06/05 09:56:17;;;;;;;4.40;2.20;;;;;;;23.78;35.06;101184.15;105534;1297;75205;-87
2023/06/05 09:58:45;;;;;;;2.70;1.70;;;;;;;23.79;34.99;101187.95;105465;1299;67867;-87
2023/06/05 10:01:13;;;;;;;4.50;2.40;;;;;;;23.79;34.98;101187.80;105471;1297;67757;-88
2023/06/05 10:03:38;;;;;;;3.30;2.20;;;;;;;23.79;34.96;101187.28;105473;1297;67772;-87
2023/06/05 10:06:04;;;;;;;5.70;2.20;;;;;;;23.80;34.85;101192.63;105523;1297;67818;-88
2023/06/05 10:08:38;;;;;;;5.20;2.30;;;;;;;23.80;34.86;101187.84;105513;1297;67780;-91
2023/06/05 10:11:04;;;;;;;4.30;2.30;;;;;;;23.80;34.84;101175.88;105423;1302;67809;-87
2023/06/05 10:13:29;;;;;;;4.70;2.10;;;;;;;23.80;34.74;101170.08;105552;1297;67218;-88
2023/06/05 10:15:55;;;;;;;5.40;2.10;;;;;;;23.81;34.70;101164.46;105396;1297;67846;-88
2023/06/05 10:18:22;;;;;;;3.50;2.40;;;;;;;23.81;34.66;101162.57;105426;1297;67403;-88
2023/06/05 10:20:48;;;;;;;4.20;2.30;;;;;;;23.81;34.69;101159.59;105503;1297;67664;-88
2023/06/05 10:23:17;;;;;;;5.20;2.20;;;;;;;23.81;34.59;101155.48;105486;1297;67984;-87
2023/06/05 10:25:44;;;;;;;6.30;2.20;;;;;;;23.82;34.62;101152.04;105408;1297;67805;-87
2023/06/05 10:28:48;;;;;;;6.20;2.40;;;;;;;23.82;34.55;101153.48;105566;1297;67814;-87
2023/06/05 10:31:19;;;;;;;4.50;2.10;;;;;;;23.81;34.64;101144.89;105310;1297;67894;-87
2023/06/05 10:34:03;;;;;;;6.10;2.10;;;;;;;23.81;34.59;101139.14;105403;1297;74113;-88
2023/06/05 10:37:11;;;;;;;4.60;2.10;;;;;;;23.82;34.54;101138.30;105523;1297;67824;-88
2023/06/05 10:39:37;;;;;;;4.10;2.10;;;;;;;23.81;34.46;101131.58;105471;1297;67668;-88
2023/06/05 10:42:02;;;;;;;3.80;2.00;;;;;;;23.82;34.52;101127.42;105378;1297;67886;-88
2023/06/05 10:44:44;;;;;;;4.80;2.20;;;;;;;23.82;34.63;101129.63;105422;1297;68590;-93
2023/06/05 10:47:31;;;;;;;4.10;2.30;;;;;;;23.82;34.52;101131.46;105455;1297;74241;-88
2023/06/05 10:52:53;;;;;;;3.70;2.00;;;;;;;23.82;34.48;101125.77;105610;1293;68423;-87
2023/06/05 10:55:20;;;;;;;4.30;2.20;;;;;;;23.83;34.48;101124.17;105636;1299;67425;-87
2023/06/05 10:58:00;;;;;;;5.00;1.90;;;;;;;23.84;34.52;101121.19;105535;1297;68437;-87
2023/06/05 11:00:30;;;;;;;4.20;2.10;;;;;;;23.84;34.47;101118.06;105606;1297;75350;-87
2023/06/05 11:02:56;;;;;;;3.40;2.00;;;;;;;23.84;34.36;101119.34;105472;1299;67228;-87
2023/06/05 11:05:28;;;;;;;3.90;2.10;;;;;;;23.84;34.51;101122.53;105474;1303;67877;-92
2023/06/05 11:08:10;;;;;;;5.00;2.10;;;;;;;23.85;34.41;101128.48;105474;1297;67918;-87
2023/06/05 11:10:35;;;;;;;4.10;2.00;;;;;;;23.84;34.37;101127.61;105629;1297;67886;-87
2023/06/05 11:13:01;;;;;;;3.50;1.90;;;;;;;23.84;34.38;101122.42;105552;1305;67522;-87
2023/06/05 11:15:30;;;;;;;4.80;2.20;;;;;;;23.85;34.41;101118.66;105504;1297;67955;-87
2023/06/05 11:17:56;;;;;;;4.80;1.90;;;;;;;23.85;34.30;101117.02;105659;1296;67666;-88
2023/06/05 11:20:28;;;;;;;4.10;2.00;;;;;;;23.86;34.34;101121.17;105589;1301;67103;-93
2023/06/05 11:22:57;;;;;;;3.80;2.10;;;;;;;23.87;34.30;101121.95;105724;1296;68452;-88
2023/06/05 11:25:32;;;;;;;5.40;1.90;;;;;;;23.87;34.41;101114.24;105583;1299;75301;-88
2023/06/05 11:28:07;;;;;;;4.00;2.10;;;;;;;23.88;34.33;101109.66;105643;1298;67791;-87
2023/06/05 11:30:43;;;;;;;4.20;1.90;;;;;;;23.88;34.29;101109.52;105522;1302;67188;-88
2023/06/05 11:33:17;;;;;;;2.80;2.10;;;;;;;23.88;34.27;101103.36;105451;1299;67891;-87
2023/06/05 11:35:44;;;;;;;3.60;2.10;;;;;;;23.88;34.25;101098.27;105444;1299;67127;-88
2023/06/05 11:40:50;;;;;;;5.40;2.30;;;;;;;23.89;34.38;101092.40;105702;1296;67905;-88
2023/06/05 11:43:16;;;;;;;3.10;2.10;;;;;;;23.90;34.32;101092.09;105656;1296;67716;-88